Terminal Aerodrome Forecast
Issued by NWS

Home | Current Version | Previous Version | Text Only | Print | Product List | Glossary On
Versions: 1 2 3 4 5 6 7 8 9 10 11 12
000
FTUS46 KSEW 140500
TAFPAE
TAF
KPAE 140540Z 1406/1506 VRB06KT P6SM SCT060 BKN120 BKN200
      TEMPO 1406/1408 -SHRA BKN060 OVC120
     FM140800 21012KT P6SM BKN120 BKN200
     FM141100 18008KT P6SM SCT012 SCT100
      TEMPO 1412/1416 SCT007 BKN012
     FM141700 33008KT P6SM SKC=

USA.gov is the U.S. government's official web portal to all federal, state and local government web resources and services.